RCSS/TSA METAR and TAF weather

Enter ICAO airport designator
Station Type Date Time Source
RCSS METAR 2020/11/28 19:00 UTC NOAA

RCSS 281900Z 10011KT 9999 -DZ FEW008 BKN030 BKN050 18/18 Q1022 NOSIG RMK A3019


Station Type Date Time Source
RCSS Decoded METAR 2020/11/28 19:00 UTC NOAA

Sungshan / Taipei, Taiwan (RCSS) 25-04N 121-33E
Nov 28, 2020 - 02:00 PM EST / 2020.11.28 1900 UTC
Wind: from the E (100 degrees) at 13 MPH (11 KT):0
Visibility: greater than 7 mile(s):0
Sky conditions: mostly cloudy
Weather: light drizzle
Temperature: 64 F (18 C)
Dew Point: 64 F (18 C)
Relative Humidity: 100%
Pressure (altimeter): 30.18 in. Hg (1022 hPa)
ob: RCSS 281900Z 10011KT 9999 -DZ FEW008 BKN030 BKN050 18/18 Q1022 NOSIG RMK A3019
cycle: 19

Station Type Date Time Source
RCSS TAF 2020/11/28 18:03 UTC NOAA

TAF RCSS 281700Z 2818/2918 09010KT 9999 FEW012 BKN032
TEMPO 2818/2823 5000 RA FEW006 BKN020
TEMPO 2902/2908 09015KT 5000 RA FEW008 BKN020
TEMPO 2913/2918 09005KT 5000 RA FEW010 BKN020

Example: see airport list